Terminal Aerodrome Forecast
Issued by NWS Omaha/Valley, NE

Home | Current Version | Previous Version | Text Only | Print | Product List | Glossary Off
Versions: 1 2 3 4 5 6 7 8 9 10 11 12 13 14

000
FTUS43 KOAX 191736
TAFOFK
TAF
KOFK 191736Z 1918/2018 21011KT P6SM BKN250
     FM192000 22009KT P6SM BKN090
      TEMPO 2000/2004 4SM -RA OVC050
     FM200400 VRB04KT P6SM OVC050 PROB30 2012/2018 5SM -RA OVC035=

USA.gov is the U.S. government's official web portal to all federal, state and local government web resources and services.